Portada
METAR-TAF:

METAR-TAF

Aeropuertos :

Aeropuerto Internacional de Honiara

Honiara, Guadalcanal, Islas Salomón

latitud: 09-25S, longitud: 160-03E, altitud: 8 m

Observación

El informe se hizo hace 29 minutos, a las 18:00 UTC
Viento calma
Temperatura 25°C
Humedad 94%
Presión
Visibilidad: 1005 m
Escasas nubes a una altura de 1500 ft

METAR: AGGH 161800Z 00000KT 9999 FEW015 25/24 1005

Hora: 05:29 (18:29 UTC)

Pronóstico

El informe se hizo hace 1 hora y 19 minutos, a las 17:10 UTC
Pronóstico válido del 16 a las 18 UTC al 17 a las 18 UTC
Viento 10 kt del noreste
Visibilidad 10 km o más
Nubes dispersas a una altura de 1800 ft
Probabilidad 30%
entre IN y TE UTC
Visibilidad: 1004 m
Cielo nuboso a una altura de 1800 ft
chaparrones de lluvia

TAF: AGGH 161710Z 1618/1718 05010KT 9999 SCT018 PROB30 INTER 1700/1706 5000 SHRA BKN018 T 24 27 31 31 Q 1004 1006 1006 1004

Observaciones y pronósticos meteorológicos de más de 4000 aeropuertos (mensajes METAR y TAF).

Los puntos amarillos y rojos representan las estaciones disponibles.

Ponga el ratón en el punto deseado para ver el nombre de la estación.

Haga clic para ver las observaciones y los pronósticos meteorológicos.

Para cambiar el mapa : haga clic en los botones verdes con una cruz de color negro para hacer un zoom, en el botón verde con un guión para alejar o en las flechas verdes para mapas adyacentes.


METAR-TAF: